createdAt,value
2022-08-11T00:00:13.013Z,0
2022-08-11T00:01:28.957Z,0
2022-08-11T00:02:45.388Z,0
2022-08-11T00:04:01.337Z,0
2022-08-11T00:05:17.771Z,0
2022-08-11T00:06:33.963Z,0
2022-08-11T00:07:49.162Z,0
2022-08-11T00:09:05.107Z,0
2022-08-11T00:10:21.286Z,0
2022-08-11T00:11:37.465Z,0
2022-08-11T00:12:53.908Z,0
2022-08-11T00:14:10.099Z,0
2022-08-11T00:15:26.285Z,0
2022-08-11T00:16:42.216Z,0
2022-08-11T00:17:58.662Z,0
2022-08-11T00:19:14.604Z,0
2022-08-11T00:20:31.044Z,0
2022-08-11T00:21:47.215Z,0
2022-08-11T00:23:03.168Z,0
2022-08-11T00:24:18.370Z,0
2022-08-11T00:25:34.807Z,0
2022-08-11T00:26:50.729Z,0
2022-08-11T00:28:07.168Z,0
2022-08-11T00:29:23.115Z,0
2022-08-11T00:30:39.560Z,0
2022-08-11T00:31:55.483Z,0
2022-08-11T00:33:11.927Z,0
2022-08-11T00:34:27.856Z,0
2022-08-11T00:35:44.037Z,0
2022-08-11T00:37:00.490Z,0
2022-08-11T00:38:16.677Z,0
2022-08-11T00:39:32.612Z,0
2022-08-11T00:40:48.073Z,0
2022-08-11T00:42:04.002Z,0
2022-08-11T00:43:20.442Z,0
2022-08-11T00:44:36.623Z,0
2022-08-11T00:45:52.813Z,0
2022-08-11T00:47:08.752Z,0
2022-08-11T00:48:24.928Z,0
2022-08-11T00:49:41.124Z,0
2022-08-11T00:50:57.568Z,0
2022-08-11T00:52:13.752Z,0
2022-08-11T00:53:29.933Z,0
2022-08-11T00:54:45.877Z,0
2022-08-11T00:56:02.319Z,0
2022-08-11T00:57:17.255Z,0
2022-08-11T00:58:33.697Z,0
2022-08-11T00:59:49.894Z,0
2022-08-11T01:01:05.830Z,0
2022-08-11T01:02:22.018Z,0
2022-08-11T01:03:38.447Z,0
2022-08-11T01:04:54.374Z,0
2022-08-11T01:06:10.835Z,0
2022-08-11T01:07:26.760Z,0
2022-08-11T01:08:42.945Z,0
2022-08-11T01:09:59.123Z,0
2022-08-11T01:11:15.575Z,0
2022-08-11T01:12:31.509Z,0
2022-08-11T01:13:46.969Z,0
2022-08-11T01:15:03.154Z,0
2022-08-11T01:16:19.338Z,0
2022-08-11T01:17:35.264Z,0
2022-08-11T01:18:51.711Z,0
2022-08-11T01:20:07.654Z,0
2022-08-11T01:21:23.838Z,0
2022-08-11T01:22:40.274Z,0
2022-08-11T01:23:56.000Z,0
2022-08-11T01:25:12.389Z,0
2022-08-11T01:26:28.577Z,0
2022-08-11T01:27:44.773Z,0
2022-08-11T01:29:00.962Z,0
2022-08-11T01:30:16.428Z,0
2022-08-11T01:31:32.616Z,0
2022-08-11T01:32:48.539Z,0
2022-08-11T01:34:04.977Z,0
2022-08-11T01:35:20.899Z,0
2022-08-11T01:36:37.087Z,0
2022-08-11T01:37:53.553Z,0
2022-08-11T01:39:09.471Z,0
2022-08-11T01:40:25.653Z,0
2022-08-11T01:41:42.103Z,0
2022-08-11T01:42:58.037Z,0
2022-08-11T01:44:14.480Z,0
2022-08-11T01:45:30.671Z,0
2022-08-11T01:46:45.606Z,0
2022-08-11T01:48:01.792Z,0
2022-08-11T01:49:18.260Z,0
2022-08-11T01:50:34.178Z,0
2022-08-11T01:51:50.353Z,0
2022-08-11T01:53:06.823Z,0
2022-08-11T01:54:22.994Z,0
2022-08-11T01:55:38.910Z,0
2022-08-11T01:56:55.379Z,0
2022-08-11T01:58:11.283Z,0
2022-08-11T01:59:27.747Z,0
2022-08-11T02:00:43.669Z,0
2022-08-11T02:02:00.124Z,0
2022-08-11T02:03:15.053Z,0
2022-08-11T02:04:31.250Z,0
2022-08-11T02:05:47.439Z,0
2022-08-11T02:07:03.888Z,0
2022-08-11T02:08:19.810Z,0
2022-08-11T02:09:36.259Z,0
2022-08-11T02:10:52.186Z,0
2022-08-11T02:12:08.631Z,0
2022-08-11T02:13:24.562Z,0
2022-08-11T02:14:41.020Z,0
2022-08-11T02:15:57.205Z,0
2022-08-11T02:17:13.120Z,0
2022-08-11T02:18:29.306Z,0
2022-08-11T02:19:44.789Z,0
2022-08-11T02:21:00.696Z,0
2022-08-11T02:22:17.161Z,0
2022-08-11T02:23:33.344Z,0
2022-08-11T02:24:49.528Z,0
2022-08-11T02:26:05.433Z,0
2022-08-11T02:27:21.633Z,0
2022-08-11T02:28:37.818Z,0
2022-08-11T02:29:54.011Z,0
2022-08-11T02:31:10.469Z,0
2022-08-11T02:32:26.373Z,0
2022-08-11T02:33:42.574Z,0
2022-08-11T02:34:58.000Z,0
2022-08-11T02:36:13.961Z,0
2022-08-11T02:37:30.420Z,0
2022-08-11T02:38:46.607Z,0
2022-08-11T02:40:02.786Z,0
2022-08-11T02:41:18.697Z,0
2022-08-11T02:42:34.897Z,0
2022-08-11T02:43:51.088Z,0
2022-08-11T02:45:07.546Z,0
2022-08-11T02:46:23.720Z,0
2022-08-11T02:47:39.922Z,0
2022-08-11T02:48:55.823Z,0
2022-08-11T02:50:12.297Z,0
2022-08-11T02:51:28.196Z,0
2022-08-11T02:52:43.682Z,0
2022-08-11T02:53:59.861Z,0
2022-08-11T02:55:16.061Z,0
2022-08-11T02:56:31.966Z,0
2022-08-11T02:57:48.436Z,0
2022-08-11T02:59:04.335Z,0
2022-08-11T03:00:20.796Z,0
2022-08-11T03:01:36.991Z,0
2022-08-11T03:02:53.184Z,0
2022-08-11T03:04:09.084Z,0
2022-08-11T03:05:25.550Z,0
2022-08-11T03:06:41.457Z,0
2022-08-11T03:07:57.657Z,0
2022-08-11T03:09:13.126Z,0
2022-08-11T03:10:29.315Z,0
2022-08-11T03:11:45.219Z,0
2022-08-11T03:13:01.415Z,0
2022-08-11T03:14:17.595Z,0
2022-08-11T03:15:34.066Z,0
2022-08-11T03:16:50.257Z,0
2022-08-11T03:18:06.451Z,0
2022-08-11T03:19:22.340Z,0
2022-08-11T03:20:38.813Z,0
2022-08-11T03:21:54.726Z,0
2022-08-11T03:23:11.186Z,0
2022-08-11T03:24:27.390Z,0
2022-08-11T03:25:42.581Z,0
2022-08-11T03:26:58.495Z,0
2022-08-11T03:28:14.952Z,0
2022-08-11T03:29:30.875Z,0
2022-08-11T03:30:47.338Z,0
2022-08-11T03:32:03.526Z,0
2022-08-11T03:33:19.418Z,0
2022-08-11T03:34:35.602Z,0
2022-08-11T03:35:52.092Z,0
2022-08-11T03:37:07.997Z,0
2022-08-11T03:38:24.467Z,0
2022-08-11T03:39:40.652Z,0
2022-08-11T03:40:56.834Z,0
2022-08-11T03:42:11.749Z,0
2022-08-11T03:43:28.217Z,0
2022-08-11T03:44:44.129Z,0
2022-08-11T03:46:00.320Z,0
2022-08-11T03:47:16.491Z,0
2022-08-11T03:48:32.977Z,0
2022-08-11T03:49:48.873Z,0
2022-08-11T03:51:05.357Z,0
2022-08-11T03:52:21.254Z,5
2022-08-11T03:53:37.722Z,5
2022-08-11T03:54:53.909Z,5
2022-08-11T03:56:10.096Z,5
2022-08-11T03:57:26.005Z,5
2022-08-11T03:58:41.483Z,5
2022-08-11T03:59:57.379Z,5
2022-08-11T04:01:13.875Z,5
2022-08-11T04:02:29.767Z,5
2022-08-11T04:03:45.938Z,5
2022-08-11T04:05:02.127Z,5
2022-08-11T04:06:17.632Z,5
2022-08-11T04:07:33.528Z,5
2022-08-11T04:08:49.707Z,11
2022-08-11T04:10:06.198Z,11
2022-08-11T04:11:22.090Z,11
2022-08-11T04:12:38.269Z,11
2022-08-11T04:13:54.755Z,11
2022-08-11T04:15:10.658Z,11
2022-08-11T04:16:27.130Z,11
2022-08-11T04:17:43.330Z,11
2022-08-11T04:18:59.504Z,11
2022-08-11T04:20:15.411Z,11
2022-08-11T04:21:31.879Z,11
2022-08-11T04:22:46.782Z,11
2022-08-11T04:24:02.983Z,16
2022-08-11T04:25:19.471Z,16
2022-08-11T04:26:35.643Z,16
2022-08-11T04:27:51.535Z,16
2022-08-11T04:29:08.036Z,16
2022-08-11T04:30:23.911Z,16
2022-08-11T04:31:40.410Z,16
2022-08-11T04:32:56.592Z,16
2022-08-11T04:34:12.786Z,16
2022-08-11T04:35:28.674Z,16
2022-08-11T04:36:45.143Z,16
2022-08-11T04:38:01.036Z,16
2022-08-11T04:39:16.538Z,22
2022-08-11T04:40:32.430Z,22
2022-08-11T04:41:48.908Z,22
2022-08-11T04:43:04.808Z,22
2022-08-11T04:44:21.301Z,22
2022-08-11T04:45:37.184Z,22
2022-08-11T04:46:53.676Z,22
2022-08-11T04:48:09.872Z,22
2022-08-11T04:49:26.044Z,22
2022-08-11T04:50:41.938Z,22
2022-08-11T04:51:58.433Z,28
2022-08-11T04:54:30.809Z,28
2022-08-11T04:55:46.010Z,28
2022-08-11T04:57:02.207Z,28
2022-08-11T04:58:18.078Z,28
2022-08-11T04:59:34.585Z,28
2022-08-11T05:00:50.464Z,28
2022-08-11T05:02:06.645Z,28
2022-08-11T05:03:22.827Z,28
2022-08-11T05:04:39.323Z,33
2022-08-11T05:05:55.207Z,33
2022-08-11T05:07:11.712Z,33
2022-08-11T05:08:27.595Z,33
2022-08-11T05:09:44.081Z,33
2022-08-11T05:11:00.269Z,33
2022-08-11T05:12:15.486Z,33
2022-08-11T05:13:31.361Z,33
2022-08-11T05:14:47.541Z,33
2022-08-11T05:16:03.748Z,33
2022-08-11T05:17:19.934Z,33
2022-08-11T05:18:36.425Z,39
2022-08-11T05:19:52.609Z,39
2022-08-11T05:21:08.484Z,39
2022-08-11T05:22:24.993Z,39
2022-08-11T05:23:40.879Z,39
2022-08-11T05:24:57.367Z,39
2022-08-11T05:26:13.559Z,39
2022-08-11T05:27:29.748Z,39
2022-08-11T05:28:44.650Z,39
2022-08-11T05:30:01.151Z,39
2022-08-11T05:31:17.030Z,45
2022-08-11T05:32:33.519Z,45
2022-08-11T05:33:49.710Z,45
2022-08-11T05:35:05.888Z,45
2022-08-11T05:36:21.770Z,45
2022-08-11T05:37:38.273Z,45
2022-08-11T05:38:54.151Z,45
2022-08-11T05:40:10.339Z,45
2022-08-11T05:41:26.845Z,45
2022-08-11T05:42:43.041Z,45
2022-08-11T05:43:58.899Z,50
2022-08-11T05:45:14.417Z,50
2022-08-11T05:46:30.291Z,50
2022-08-11T05:47:46.801Z,50
2022-08-11T05:49:02.682Z,50
2022-08-11T05:50:19.187Z,50
2022-08-11T05:51:35.335Z,50
2022-08-11T05:52:51.507Z,50
2022-08-11T05:54:07.708Z,50
2022-08-11T05:55:23.935Z,50
2022-08-11T05:56:40.133Z,50
2022-08-11T05:57:56.310Z,50
2022-08-11T05:59:12.466Z,50
2022-08-11T06:00:28.653Z,50
2022-08-11T06:01:43.847Z,50
2022-08-11T06:03:00.080Z,50
2022-08-11T06:04:16.222Z,50
2022-08-11T06:05:32.417Z,50
2022-08-11T06:06:48.608Z,50
2022-08-11T06:08:04.835Z,56
2022-08-11T06:09:20.984Z,56
2022-08-11T06:10:37.219Z,56
2022-08-11T06:11:53.414Z,56
2022-08-11T06:13:09.603Z,56
2022-08-11T06:14:25.730Z,56
2022-08-11T06:15:41.970Z,56
2022-08-11T06:16:58.124Z,56
2022-08-11T06:18:13.323Z,56
2022-08-11T06:19:29.566Z,56
2022-08-11T06:20:45.748Z,56
2022-08-11T06:22:01.883Z,56
2022-08-11T06:23:18.133Z,56
2022-08-11T06:24:34.314Z,56
2022-08-11T06:25:50.445Z,56
2022-08-11T06:27:06.647Z,56
2022-08-11T06:28:22.871Z,56
2022-08-11T06:29:39.026Z,56
2022-08-11T06:30:55.210Z,56
2022-08-11T06:32:11.399Z,56
2022-08-11T06:33:27.585Z,56
2022-08-11T06:34:42.792Z,56
2022-08-11T06:35:59.033Z,56
2022-08-11T06:37:15.163Z,56
2022-08-11T06:38:31.417Z,56
2022-08-11T06:39:47.550Z,56
2022-08-11T06:41:03.786Z,61
2022-08-11T06:42:19.986Z,61
2022-08-11T06:43:36.158Z,61
2022-08-11T06:46:08.546Z,61
2022-08-11T06:47:24.734Z,61
2022-08-11T06:48:40.915Z,61
2022-08-11T06:49:57.065Z,61
2022-08-11T06:51:12.327Z,61
2022-08-11T06:52:28.443Z,61
2022-08-11T06:53:44.698Z,61
2022-08-11T06:55:00.823Z,61
2022-08-11T06:56:17.064Z,61
2022-08-11T06:57:33.210Z,61
2022-08-11T06:58:49.455Z,61
2022-08-11T07:00:05.581Z,61
2022-08-11T07:01:21.832Z,61
2022-08-11T07:02:37.952Z,61
2022-08-11T07:03:54.158Z,61
2022-08-11T07:05:10.391Z,61
2022-08-11T07:06:26.584Z,61
2022-08-11T07:07:41.741Z,61
2022-08-11T07:08:57.921Z,61
2022-08-11T07:10:14.111Z,61
2022-08-11T07:11:30.296Z,61
2022-08-11T07:12:46.553Z,61
2022-08-11T07:14:02.741Z,61
2022-08-11T07:15:18.867Z,61
2022-08-11T07:16:35.116Z,61
2022-08-11T07:17:51.244Z,61
2022-08-11T07:19:07.493Z,61
2022-08-11T07:20:23.687Z,61
2022-08-11T07:21:39.868Z,61
2022-08-11T07:22:56.005Z,61
2022-08-11T07:24:11.264Z,61
2022-08-11T07:25:27.393Z,61
2022-08-11T07:26:43.646Z,61
2022-08-11T07:27:59.839Z,61
2022-08-11T07:29:16.033Z,61
2022-08-11T07:30:32.152Z,67
2022-08-11T07:31:48.397Z,67
2022-08-11T07:33:04.584Z,67
2022-08-11T07:34:20.787Z,67
2022-08-11T07:35:36.916Z,67
2022-08-11T07:36:53.167Z,67
2022-08-11T07:38:09.278Z,67
2022-08-11T07:39:25.533Z,67
2022-08-11T07:40:40.677Z,67
2022-08-11T07:41:56.933Z,67
2022-08-11T07:43:13.130Z,67
2022-08-11T07:44:29.312Z,67
2022-08-11T07:45:45.437Z,67
2022-08-11T07:47:01.622Z,67
2022-08-11T07:48:17.804Z,67
2022-08-11T07:49:34.063Z,67
2022-08-11T07:50:50.260Z,67
2022-08-11T07:52:06.448Z,67
2022-08-11T07:53:22.559Z,67
2022-08-11T07:54:38.828Z,67
2022-08-11T07:55:54.952Z,67
2022-08-11T07:57:10.219Z,67
2022-08-11T07:58:26.402Z,67
2022-08-11T07:59:42.534Z,67
2022-08-11T08:00:58.711Z,67
2022-08-11T08:02:14.982Z,67
2022-08-11T08:03:31.106Z,67
2022-08-11T08:04:47.360Z,67
2022-08-11T08:06:03.538Z,67
2022-08-11T08:07:19.739Z,67
2022-08-11T08:08:35.858Z,67
2022-08-11T08:09:52.122Z,67
2022-08-11T08:11:08.236Z,67
2022-08-11T08:12:24.489Z,67
2022-08-11T08:13:39.629Z,67
2022-08-11T08:14:55.814Z,73
2022-08-11T08:16:11.999Z,73
2022-08-11T08:17:28.270Z,73
2022-08-11T08:18:44.386Z,73
2022-08-11T08:20:00.643Z,73
2022-08-11T08:21:15.862Z,73
2022-08-11T08:22:32.049Z,73
2022-08-11T08:23:48.147Z,73
2022-08-11T08:25:04.413Z,73
2022-08-11T08:26:20.538Z,73
2022-08-11T08:27:36.797Z,73
2022-08-11T08:28:52.979Z,73
2022-08-11T08:30:09.187Z,73
2022-08-11T08:31:25.281Z,73
2022-08-11T08:32:41.564Z,73
2022-08-11T08:33:57.676Z,73
2022-08-11T08:35:13.928Z,73
2022-08-11T08:36:30.124Z,73
2022-08-11T08:37:45.326Z,73
2022-08-11T08:39:01.433Z,73
2022-08-11T08:40:17.715Z,73
2022-08-11T08:41:33.811Z,73
2022-08-11T08:42:49.996Z,73
2022-08-11T08:44:06.283Z,73
2022-08-11T08:45:22.467Z,73
2022-08-11T08:46:38.573Z,78
2022-08-11T08:47:54.765Z,78
2022-08-11T08:49:10.958Z,78
2022-08-11T08:50:27.145Z,78
2022-08-11T08:51:43.403Z,78
2022-08-11T08:52:59.598Z,78
2022-08-11T08:54:14.716Z,78
2022-08-11T08:55:30.914Z,78
2022-08-11T08:56:47.109Z,78
2022-08-11T08:58:03.361Z,78
2022-08-11T08:59:19.563Z,78
2022-08-11T09:00:35.753Z,78
2022-08-11T09:01:51.852Z,78
2022-08-11T09:03:08.041Z,78
2022-08-11T09:04:24.232Z,78
2022-08-11T09:05:40.414Z,78
2022-08-11T09:06:56.694Z,78
2022-08-11T09:08:12.878Z,78
2022-08-11T09:09:28.998Z,84
2022-08-11T09:10:44.186Z,84
2022-08-11T09:12:00.385Z,84
2022-08-11T09:13:16.654Z,84
2022-08-11T09:14:32.856Z,84
2022-08-11T09:15:48.939Z,84
2022-08-11T09:17:05.137Z,84
2022-08-11T09:18:21.413Z,78
2022-08-11T09:19:37.516Z,84
2022-08-11T09:20:53.784Z,84
2022-08-11T09:22:09.974Z,84
2022-08-11T09:23:26.089Z,84
2022-08-11T09:24:42.279Z,90
2022-08-11T09:25:58.549Z,90
2022-08-11T09:27:13.673Z,90
2022-08-11T09:28:29.855Z,90
2022-08-11T09:29:46.034Z,90
2022-08-11T09:31:02.331Z,90
2022-08-11T09:32:18.416Z,90
2022-08-11T09:33:34.698Z,90
2022-08-11T09:34:50.806Z,90
2022-08-11T09:36:07.082Z,90
2022-08-11T09:37:23.259Z,95
2022-08-11T09:38:39.447Z,95
2022-08-11T09:39:55.559Z,95
2022-08-11T09:41:11.754Z,84
2022-08-11T09:42:27.925Z,90
2022-08-11T09:43:43.222Z,95
2022-08-11T09:44:59.424Z,95
2022-08-11T09:46:15.601Z,101
2022-08-11T09:47:31.714Z,101
2022-08-11T09:48:47.992Z,101
2022-08-11T09:50:04.080Z,101
2022-08-11T09:51:20.360Z,101
2022-08-11T09:52:36.463Z,101
2022-08-11T09:53:52.656Z,101
2022-08-11T09:55:08.842Z,106
2022-08-11T09:56:25.127Z,112
2022-08-11T09:57:41.217Z,118
2022-08-11T09:58:57.499Z,135
2022-08-11T10:00:12.693Z,140
2022-08-11T10:01:28.894Z,135
2022-08-11T10:02:44.985Z,118
2022-08-11T10:04:01.177Z,112
2022-08-11T10:05:17.365Z,118
2022-08-11T10:06:33.555Z,123
2022-08-11T10:07:49.831Z,135
2022-08-11T10:09:06.026Z,135
2022-08-11T10:10:22.122Z,135
2022-08-11T10:11:38.404Z,151
2022-08-11T10:12:54.507Z,168
2022-08-11T10:14:10.777Z,185
2022-08-11T10:15:26.963Z,185
2022-08-11T10:16:42.082Z,191
2022-08-11T10:17:58.265Z,180
2022-08-11T10:19:14.467Z,180
2022-08-11T10:20:30.652Z,180
2022-08-11T10:21:46.931Z,174
2022-08-11T10:23:03.123Z,174
2022-08-11T10:24:19.318Z,180
2022-08-11T10:25:35.412Z,174
2022-08-11T10:26:51.691Z,168
2022-08-11T10:28:07.787Z,163
2022-08-11T10:29:24.072Z,157
2022-08-11T10:30:40.253Z,157
2022-08-11T10:31:56.354Z,157
2022-08-11T10:33:11.543Z,163
2022-08-11T10:34:27.832Z,163
2022-08-11T10:35:43.930Z,157
2022-08-11T10:37:00.222Z,157
2022-08-11T10:38:16.409Z,157
2022-08-11T10:39:32.596Z,168
2022-08-11T10:40:48.678Z,180
2022-08-11T10:42:04.984Z,185
2022-08-11T10:43:21.057Z,180
2022-08-11T10:44:37.241Z,185
2022-08-11T10:45:53.436Z,185
2022-08-11T10:47:09.733Z,185
2022-08-11T10:48:25.812Z,185
2022-08-11T10:49:41.128Z,185
2022-08-11T10:50:57.214Z,191
2022-08-11T10:52:13.505Z,202
2022-08-11T10:53:29.705Z,202
2022-08-11T10:54:45.890Z,196
2022-08-11T10:56:01.968Z,196
2022-08-11T10:57:18.164Z,208
2022-08-11T10:58:34.357Z,213
2022-08-11T10:59:50.632Z,219
2022-08-11T11:01:06.716Z,219
2022-08-11T11:02:23.014Z,208
2022-08-11T11:03:39.108Z,208
2022-08-11T11:04:55.392Z,208
2022-08-11T11:06:10.494Z,208
2022-08-11T11:07:26.785Z,208
2022-08-11T11:08:42.872Z,213
2022-08-11T11:09:59.064Z,213
2022-08-11T11:11:15.255Z,219
2022-08-11T11:12:31.442Z,225
2022-08-11T11:13:47.620Z,225
2022-08-11T11:15:03.919Z,225
2022-08-11T11:16:20.123Z,225
2022-08-11T11:17:36.191Z,230
2022-08-11T11:18:52.391Z,230
2022-08-11T11:20:08.681Z,236
2022-08-11T11:21:24.763Z,236
2022-08-11T11:22:40.072Z,241
2022-08-11T11:23:56.259Z,253
2022-08-11T11:25:12.354Z,270
2022-08-11T11:26:28.537Z,292
2022-08-11T11:27:44.844Z,320
2022-08-11T11:29:00.920Z,331
2022-08-11T11:30:17.110Z,348
2022-08-11T11:31:33.398Z,337
2022-08-11T11:32:49.474Z,343
2022-08-11T11:34:05.673Z,354
2022-08-11T11:35:21.857Z,365
2022-08-11T11:36:38.151Z,376
2022-08-11T11:37:54.351Z,393
2022-08-11T11:39:09.553Z,416
2022-08-11T11:40:25.746Z,450
2022-08-11T11:41:41.819Z,680
2022-08-11T11:42:58.117Z,1760
2022-08-11T11:44:14.193Z,2148
2022-08-11T11:45:30.504Z,2120
2022-08-11T11:46:46.688Z,2193
2022-08-11T11:48:02.762Z,2261
2022-08-11T11:49:18.946Z,2266
2022-08-11T11:50:35.255Z,2289
2022-08-11T11:51:51.327Z,2120
2022-08-11T11:53:07.633Z,2323
2022-08-11T11:54:23.819Z,2278
2022-08-11T11:55:39.038Z,2199
2022-08-11T11:56:55.103Z,2182
2022-08-11T11:58:11.412Z,2008
2022-08-11T11:59:27.596Z,2413
2022-08-11T12:00:43.674Z,2593
2022-08-11T12:01:59.861Z,2503
2022-08-11T12:03:16.175Z,2362
2022-08-11T12:04:32.230Z,2418
2022-08-11T12:05:48.557Z,2531
2022-08-11T12:07:04.622Z,2323
2022-08-11T12:08:20.916Z,2536
2022-08-11T12:09:37.124Z,2570
2022-08-11T12:10:53.179Z,2739
2022-08-11T12:12:08.384Z,2576
2022-08-11T12:13:24.582Z,2795
2022-08-11T12:14:40.772Z,2373
2022-08-11T12:15:57.084Z,2801
2022-08-11T12:17:13.275Z,2981
2022-08-11T12:18:29.456Z,3335
2022-08-11T12:19:45.522Z,3453
2022-08-11T12:21:01.846Z,3510
2022-08-11T12:22:17.913Z,3380
2022-08-11T12:23:34.215Z,3048
2022-08-11T12:24:50.407Z,2857
2022-08-11T12:26:06.481Z,3071
2022-08-11T12:27:22.655Z,2953
2022-08-11T12:28:37.990Z,2559
2022-08-11T12:29:54.057Z,2722
2022-08-11T12:31:10.364Z,2733
2022-08-11T12:32:26.430Z,2683
2022-08-11T12:33:42.752Z,2683
2022-08-11T12:34:58.806Z,2902
2022-08-11T12:36:14.144Z,2801
2022-08-11T12:37:30.212Z,2812
2022-08-11T12:38:46.000Z,2840
2022-08-11T12:40:02.728Z,2964
2022-08-11T12:41:18.901Z,2902
2022-08-11T12:42:34.984Z,2902
2022-08-11T12:43:51.283Z,2896
2022-08-11T12:45:07.346Z,2947
2022-08-11T12:46:23.662Z,2823
2022-08-11T12:47:39.857Z,2874
2022-08-11T12:48:56.049Z,2930
2022-08-11T12:50:12.111Z,2885
2022-08-11T12:51:28.302Z,2801
2022-08-11T12:52:43.496Z,2840
2022-08-11T12:53:59.830Z,2655
2022-08-11T12:55:16.005Z,2143
2022-08-11T12:56:32.079Z,2536
2022-08-11T12:57:48.259Z,2784
2022-08-11T12:59:04.577Z,2745
2022-08-11T13:00:20.653Z,2835
2022-08-11T13:01:36.952Z,2823
2022-08-11T13:02:53.030Z,2784
2022-08-11T13:04:09.343Z,2716
2022-08-11T13:05:25.397Z,2801
2022-08-11T13:06:41.711Z,2778
2022-08-11T13:07:57.918Z,2851
2022-08-11T13:09:13.119Z,2801
2022-08-11T13:10:29.305Z,2801
2022-08-11T13:11:45.491Z,2818
2022-08-11T13:13:01.562Z,2823
2022-08-11T13:14:17.872Z,2835
2022-08-11T13:15:33.928Z,2733
2022-08-11T13:16:50.113Z,2773
2022-08-11T13:18:06.444Z,2806
2022-08-11T13:19:22.630Z,2767
2022-08-11T13:20:38.682Z,2739
2022-08-11T13:21:55.013Z,2745
2022-08-11T13:23:11.205Z,2700
2022-08-11T13:24:27.383Z,2655
2022-08-11T13:25:42.604Z,2649
2022-08-11T13:26:58.786Z,2694
2022-08-11T13:28:14.838Z,2683
2022-08-11T13:29:31.041Z,2621
2022-08-11T13:30:47.231Z,2536
2022-08-11T13:32:03.550Z,2559
2022-08-11T13:33:19.593Z,2548
2022-08-11T13:34:35.930Z,2531
2022-08-11T13:35:51.970Z,2542
2022-08-11T13:37:08.309Z,2396
2022-08-11T13:38:24.365Z,2351
2022-08-11T13:39:40.685Z,2373
2022-08-11T13:40:56.881Z,2390
2022-08-11T13:42:11.947Z,2176
2022-08-11T13:43:28.133Z,2362
2022-08-11T13:44:44.450Z,2323
2022-08-11T13:46:00.517Z,2441
2022-08-11T13:47:16.845Z,2615
2022-08-11T13:48:33.018Z,2610
2022-08-11T13:49:49.214Z,2520
2022-08-11T13:51:05.277Z,2548
2022-08-11T13:52:21.587Z,2615
2022-08-11T13:53:37.655Z,2610
2022-08-11T13:54:53.967Z,2621
2022-08-11T13:56:10.171Z,2632
2022-08-11T13:57:26.206Z,2626
2022-08-11T13:58:41.425Z,2559
2022-08-11T13:59:57.755Z,2548
2022-08-11T14:01:13.797Z,2531
2022-08-11T14:02:30.126Z,2396
2022-08-11T14:03:46.317Z,2401
2022-08-11T14:05:02.499Z,2480
2022-08-11T14:06:18.551Z,2362
2022-08-11T14:07:34.893Z,2368
2022-08-11T14:08:50.939Z,2379
2022-08-11T14:10:07.267Z,2430
2022-08-11T14:11:23.315Z,2413
2022-08-11T14:12:39.651Z,2390
2022-08-11T14:13:55.698Z,2295
2022-08-11T14:15:10.899Z,2255
2022-08-11T14:16:27.070Z,2272
2022-08-11T14:17:43.399Z,2261
2022-08-11T14:18:59.446Z,2295
2022-08-11T14:20:15.781Z,2295
2022-08-11T14:21:31.836Z,2143
2022-08-11T14:22:48.157Z,2120
2022-08-11T14:24:04.355Z,2165
2022-08-11T14:25:20.536Z,2193
2022-08-11T14:26:36.735Z,2008
2022-08-11T14:27:52.910Z,2109
2022-08-11T14:29:08.945Z,2109
2022-08-11T14:30:25.290Z,2137
2022-08-11T14:31:40.351Z,2137
2022-08-11T14:32:56.677Z,2013
2022-08-11T14:34:12.878Z,1985
2022-08-11T14:35:29.055Z,2025
2022-08-11T14:36:45.087Z,2008
2022-08-11T14:38:01.290Z,1963
2022-08-11T14:39:17.482Z,1783
2022-08-11T14:40:33.654Z,1198
2022-08-11T14:41:49.949Z,545
2022-08-11T14:43:06.135Z,433
2022-08-11T14:44:22.229Z,405
2022-08-11T14:45:38.512Z,365
2022-08-11T14:46:54.596Z,376
2022-08-11T14:48:09.897Z,371
2022-08-11T14:49:26.091Z,365
2022-08-11T14:50:42.276Z,365
2022-08-11T14:51:58.368Z,360
2022-08-11T14:53:14.648Z,337
2022-08-11T14:54:30.744Z,354
2022-08-11T14:55:47.032Z,348
2022-08-11T14:57:03.219Z,343
2022-08-11T14:58:19.303Z,343
2022-08-11T14:59:35.482Z,337
2022-08-11T15:00:51.778Z,331
2022-08-11T15:02:07.861Z,337
2022-08-11T15:03:24.163Z,331
2022-08-11T15:04:39.258Z,331
2022-08-11T15:05:55.546Z,331
2022-08-11T15:07:11.745Z,326
2022-08-11T15:08:27.915Z,326
2022-08-11T15:09:44.015Z,320
2022-08-11T15:11:00.194Z,320
2022-08-11T15:12:16.483Z,320
2022-08-11T15:13:32.686Z,315
2022-08-11T15:14:48.751Z,315
2022-08-11T15:16:05.053Z,303
2022-08-11T15:17:21.129Z,286
2022-08-11T15:18:37.423Z,253
2022-08-11T15:19:53.614Z,219
2022-08-11T15:21:08.828Z,191
2022-08-11T15:22:25.013Z,163
2022-08-11T15:23:41.077Z,146
2022-08-11T15:24:57.268Z,129
2022-08-11T15:26:13.577Z,123
2022-08-11T15:27:29.763Z,112
2022-08-11T15:28:45.942Z,106
2022-08-11T15:30:02.016Z,101
2022-08-11T15:31:18.328Z,95
2022-08-11T15:32:34.399Z,95
2022-08-11T15:33:50.706Z,90
2022-08-11T15:35:06.776Z,90
2022-08-11T15:36:23.075Z,90
2022-08-11T15:37:38.154Z,101
2022-08-11T15:38:54.462Z,106
2022-08-11T15:40:10.542Z,101
2022-08-11T15:41:26.837Z,95
2022-08-11T15:42:43.031Z,95
2022-08-11T15:43:59.101Z,101
2022-08-11T15:45:15.393Z,101
2022-08-11T15:46:31.580Z,95
2022-08-11T15:47:47.664Z,84
2022-08-11T15:49:03.861Z,73
2022-08-11T15:50:20.149Z,67
2022-08-11T15:51:36.338Z,73
2022-08-11T15:52:52.418Z,73
2022-08-11T15:54:07.731Z,73
2022-08-11T15:55:23.796Z,73
2022-08-11T15:56:39.981Z,67
2022-08-11T15:57:56.298Z,73
2022-08-11T15:59:12.482Z,73
2022-08-11T16:00:28.552Z,73
2022-08-11T16:01:44.733Z,78
2022-08-11T16:03:00.933Z,78
2022-08-11T16:04:17.231Z,78
2022-08-11T16:05:33.425Z,78
2022-08-11T16:06:49.611Z,73
2022-08-11T16:08:05.685Z,73
2022-08-11T16:09:21.982Z,73
2022-08-11T16:10:37.055Z,67
2022-08-11T16:11:53.370Z,67
2022-08-11T16:13:09.569Z,67
2022-08-11T16:14:25.620Z,67
2022-08-11T16:15:41.812Z,67
2022-08-11T16:16:58.125Z,73
2022-08-11T16:18:14.190Z,73
2022-08-11T16:19:30.499Z,73
2022-08-11T16:20:46.559Z,73
2022-08-11T16:22:02.865Z,73
2022-08-11T16:23:18.946Z,78
2022-08-11T16:24:35.248Z,78
2022-08-11T16:25:51.321Z,73
2022-08-11T16:27:06.644Z,67
2022-08-11T16:28:22.823Z,67
2022-08-11T16:29:39.011Z,67
2022-08-11T16:30:55.204Z,61
2022-08-11T16:32:11.391Z,61
2022-08-11T16:33:27.449Z,67
2022-08-11T16:34:43.758Z,67
2022-08-11T16:35:59.954Z,67
2022-08-11T16:37:16.150Z,67
2022-08-11T16:38:32.207Z,67
2022-08-11T16:39:48.389Z,67
2022-08-11T16:41:04.709Z,67
2022-08-11T16:42:20.901Z,67
2022-08-11T16:43:36.089Z,67
2022-08-11T16:44:52.282Z,73
2022-08-11T16:46:08.349Z,67
2022-08-11T16:47:24.663Z,67
2022-08-11T16:48:40.719Z,67
2022-08-11T16:49:56.913Z,67
2022-08-11T16:51:12.125Z,61
2022-08-11T16:52:28.428Z,56
2022-08-11T16:53:44.482Z,56
2022-08-11T16:55:00.810Z,50
2022-08-11T16:56:16.858Z,50
2022-08-11T16:57:33.181Z,50
2022-08-11T16:58:49.371Z,50
2022-08-11T17:00:05.555Z,50
2022-08-11T17:01:21.615Z,50
2022-08-11T17:02:37.938Z,45
2022-08-11T17:03:53.983Z,45
2022-08-11T17:05:10.168Z,45
2022-08-11T17:06:26.487Z,45
2022-08-11T17:07:41.704Z,39
2022-08-11T17:08:57.763Z,39
2022-08-11T17:10:14.064Z,33
2022-08-11T17:11:30.125Z,33
2022-08-11T17:12:46.454Z,33
2022-08-11T17:14:02.631Z,33
2022-08-11T17:15:18.819Z,33
2022-08-11T17:16:34.876Z,28
2022-08-11T17:17:51.191Z,28
2022-08-11T17:19:07.392Z,28
2022-08-11T17:20:23.581Z,28
2022-08-11T17:21:39.636Z,33
2022-08-11T17:22:55.953Z,33
2022-08-11T17:24:11.012Z,28
2022-08-11T17:25:27.345Z,28
2022-08-11T17:26:43.533Z,28
2022-08-11T17:27:59.720Z,28
2022-08-11T17:29:15.776Z,22
2022-08-11T17:30:31.947Z,22
2022-08-11T17:31:48.153Z,22
2022-08-11T17:33:04.459Z,22
2022-08-11T17:34:20.646Z,22
2022-08-11T17:35:36.845Z,22
2022-08-11T17:36:53.020Z,16
2022-08-11T17:38:09.088Z,16
2022-08-11T17:39:25.396Z,16
2022-08-11T17:40:40.597Z,16
2022-08-11T17:41:56.787Z,16
2022-08-11T17:43:12.843Z,16
2022-08-11T17:44:29.162Z,16
2022-08-11T17:45:45.357Z,16
2022-08-11T17:47:01.408Z,16
2022-08-11T17:48:17.589Z,16
2022-08-11T17:49:33.780Z,16
2022-08-11T17:50:50.111Z,16
2022-08-11T17:52:06.287Z,16
2022-08-11T17:53:22.335Z,16
2022-08-11T17:54:38.672Z,16
2022-08-11T17:55:54.727Z,16
2022-08-11T17:57:09.922Z,11